createdAt,value
2023-10-30T00:00:41.644Z,3.27
2023-10-30T00:03:10.777Z,3.52
2023-10-30T00:05:40.178Z,3.45
2023-10-30T00:08:08.217Z,3.58
2023-10-30T00:10:37.231Z,3.88
2023-10-30T00:13:05.269Z,3.70
2023-10-30T00:15:33.262Z,3.63
2023-10-30T00:18:01.249Z,3.72
2023-10-30T00:20:29.237Z,3.76
2023-10-30T00:22:58.680Z,3.66
2023-10-30T00:25:26.567Z,3.42
2023-10-30T00:27:54.673Z,3.64
2023-10-30T00:30:22.674Z,3.66
2023-10-30T00:32:50.681Z,3.26
2023-10-30T00:35:19.069Z,3.31
2023-10-30T00:37:47.033Z,3.43
2023-10-30T00:40:16.458Z,3.45
2023-10-30T00:42:44.430Z,3.41
2023-10-30T00:45:12.599Z,3.03
2023-10-30T00:47:41.085Z,3.21
2023-10-30T00:50:10.240Z,3.67
2023-10-30T00:52:38.207Z,3.70
2023-10-30T00:55:06.772Z,3.60
2023-10-30T00:57:36.241Z,3.79
2023-10-30T01:00:05.343Z,3.57
2023-10-30T01:02:33.615Z,3.72
2023-10-30T01:05:01.883Z,3.92
2023-10-30T01:07:30.136Z,4.14
2023-10-30T01:09:58.300Z,3.91
2023-10-30T01:12:26.287Z,3.83
2023-10-30T01:14:55.610Z,3.59
2023-10-30T01:17:23.566Z,3.52
2023-10-30T01:19:51.472Z,2.85
2023-10-30T01:22:19.448Z,2.03
2023-10-30T01:24:47.417Z,1.90
2023-10-30T01:27:15.448Z,1.96
2023-10-30T01:29:43.574Z,2.11
2023-10-30T01:32:12.907Z,1.93
2023-10-30T01:34:40.806Z,2.37
2023-10-30T01:37:08.981Z,2.10
2023-10-30T01:39:37.889Z,2.19
2023-10-30T01:42:06.172Z,2.35
2023-10-30T01:44:34.156Z,2.38
2023-10-30T01:47:02.054Z,2.44
2023-10-30T01:49:31.491Z,2.45
2023-10-30T01:51:59.615Z,2.31
2023-10-30T01:54:27.833Z,2.36
2023-10-30T01:56:55.834Z,2.29
2023-10-30T01:59:23.919Z,2.73
2023-10-30T02:01:52.044Z,2.65
2023-10-30T02:04:20.129Z,2.28
2023-10-30T02:06:49.711Z,2.49
2023-10-30T02:09:17.789Z,2.45
2023-10-30T02:11:45.733Z,2.32
2023-10-30T02:14:13.671Z,2.34
2023-10-30T02:16:41.609Z,2.48
2023-10-30T02:19:24.398Z,2.35
2023-10-30T02:21:55.593Z,2.34
2023-10-30T02:24:25.168Z,2.29
2023-10-30T02:26:54.570Z,2.37
2023-10-30T02:29:22.497Z,2.49
2023-10-30T02:31:51.401Z,2.51
2023-10-30T02:34:19.470Z,2.40
2023-10-30T02:36:47.504Z,2.35
2023-10-30T02:39:15.531Z,2.31
2023-10-30T02:41:43.618Z,2.19
2023-10-30T02:44:12.932Z,2.18
2023-10-30T02:46:40.805Z,2.26
2023-10-30T02:49:09.498Z,2.32
2023-10-30T02:51:37.455Z,2.44
2023-10-30T02:54:05.825Z,2.04
2023-10-30T02:56:33.817Z,2.01
2023-10-30T02:59:01.729Z,2.32
2023-10-30T03:01:31.020Z,2.33
2023-10-30T03:03:59.408Z,2.06
2023-10-30T03:06:27.571Z,2.27
2023-10-30T03:08:55.933Z,2.16
2023-10-30T03:11:23.938Z,2.10
2023-10-30T03:13:51.872Z,2.11
2023-10-30T03:16:20.012Z,2.18
2023-10-30T03:18:49.392Z,2.25
2023-10-30T03:21:17.456Z,2.17
2023-10-30T03:23:45.469Z,2.19
2023-10-30T03:26:13.431Z,2.09
2023-10-30T03:28:41.912Z,2.28
2023-10-30T03:31:11.596Z,2.37
2023-10-30T03:33:39.644Z,2.40
2023-10-30T03:36:09.454Z,2.26
2023-10-30T03:38:37.399Z,2.37
2023-10-30T03:41:05.562Z,2.42
2023-10-30T03:43:33.467Z,2.11
2023-10-30T03:46:01.461Z,2.07
2023-10-30T03:48:29.473Z,2.36
2023-10-30T03:50:57.485Z,1.97
2023-10-30T03:53:26.707Z,2.16
2023-10-30T03:55:54.626Z,2.44
2023-10-30T03:58:22.519Z,2.29
2023-10-30T04:00:50.513Z,2.36
2023-10-30T04:03:18.990Z,2.11
2023-10-30T04:05:46.991Z,2.20
2023-10-30T04:08:15.069Z,2.24
2023-10-30T04:10:44.322Z,2.52
2023-10-30T04:13:12.240Z,2.40
2023-10-30T04:15:40.213Z,2.59
2023-10-30T04:18:08.182Z,2.39
2023-10-30T04:20:36.072Z,2.51
2023-10-30T04:23:04.214Z,2.34
2023-10-30T04:25:32.188Z,2.63
2023-10-30T04:28:01.436Z,2.68
2023-10-30T04:30:31.342Z,2.53
2023-10-30T04:32:59.373Z,2.56
2023-10-30T04:35:27.321Z,2.45
2023-10-30T04:37:55.781Z,2.46
2023-10-30T04:40:23.868Z,2.57
2023-10-30T04:42:51.824Z,2.90
2023-10-30T04:45:21.147Z,3.02
2023-10-30T04:47:49.397Z,3.38
2023-10-30T04:50:17.455Z,3.59
2023-10-30T04:52:45.365Z,4.64
2023-10-30T04:55:13.315Z,4.48
2023-10-30T04:57:41.279Z,5.02
2023-10-30T05:00:10.718Z,4.82
2023-10-30T05:02:39.995Z,4.94
2023-10-30T05:05:08.553Z,4.93
2023-10-30T05:07:36.525Z,4.85
2023-10-30T05:10:04.857Z,4.78
2023-10-30T05:12:32.884Z,4.75
2023-10-30T05:15:00.815Z,4.88
2023-10-30T05:17:29.046Z,5.16
2023-10-30T05:19:58.320Z,4.96
2023-10-30T05:22:28.746Z,4.70
2023-10-30T05:24:56.679Z,4.59
2023-10-30T05:27:27.101Z,4.69
2023-10-30T05:29:55.340Z,5.13
2023-10-30T05:32:23.444Z,4.75
2023-10-30T05:34:51.556Z,4.46
2023-10-30T05:37:21.329Z,4.30
2023-10-30T05:39:51.192Z,4.56
2023-10-30T05:42:19.576Z,4.65
2023-10-30T05:44:48.228Z,5.16
2023-10-30T05:47:16.249Z,10.63
2023-10-30T05:49:44.247Z,97.76
2023-10-30T05:52:12.336Z,97.76
2023-10-30T05:54:41.641Z,41.81
2023-10-30T05:57:10.259Z,10.67
2023-10-30T05:59:38.274Z,5.38
2023-10-30T06:02:06.202Z,5.09
2023-10-30T06:04:34.223Z,5.54
2023-10-30T06:07:02.149Z,5.57
2023-10-30T06:09:30.214Z,6.80
2023-10-30T06:11:59.504Z,14.72
2023-10-30T06:14:29.977Z,14.16
2023-10-30T06:16:59.661Z,9.68
2023-10-30T06:19:29.388Z,10.22
2023-10-30T06:21:57.436Z,20.41
2023-10-30T06:24:25.672Z,10.46
2023-10-30T06:26:53.661Z,6.52
2023-10-30T06:29:22.982Z,6.14
2023-10-30T06:31:50.928Z,6.01
2023-10-30T06:34:18.926Z,6.76
2023-10-30T06:36:47.864Z,6.25
2023-10-30T06:39:20.935Z,7.30
2023-10-30T06:41:49.828Z,65.18
2023-10-30T06:44:18.007Z,31.38
2023-10-30T06:46:51.429Z,7.70
2023-10-30T06:49:19.409Z,6.04
2023-10-30T06:51:47.366Z,6.38
2023-10-30T06:54:15.561Z,5.97
2023-10-30T06:56:43.606Z,8.15
2023-10-30T06:59:14.166Z,7.01
2023-10-30T07:01:43.677Z,4.38
2023-10-30T07:04:13.242Z,4.05
2023-10-30T07:06:41.463Z,4.53
2023-10-30T07:09:10.292Z,4.36
2023-10-30T07:11:40.916Z,4.82
2023-10-30T07:14:09.378Z,4.22
2023-10-30T07:16:45.916Z,4.11
2023-10-30T07:19:18.599Z,4.33
2023-10-30T07:21:46.917Z,4.70
2023-10-30T07:24:14.847Z,4.49
2023-10-30T07:26:42.925Z,4.58
2023-10-30T07:29:10.821Z,4.62
2023-10-30T07:31:39.086Z,4.93
2023-10-30T07:34:07.096Z,4.60
2023-10-30T07:36:36.379Z,4.21
2023-10-30T07:39:07.065Z,4.26
2023-10-30T07:41:36.248Z,4.64
2023-10-30T07:44:04.160Z,4.57
2023-10-30T07:46:32.185Z,4.52
2023-10-30T07:49:00.278Z,4.83
2023-10-30T07:51:28.204Z,4.44
2023-10-30T07:53:57.827Z,4.59
2023-10-30T07:56:25.763Z,4.79
2023-10-30T07:58:53.732Z,4.29
2023-10-30T08:01:21.915Z,4.42
2023-10-30T08:03:50.228Z,4.35
2023-10-30T08:06:18.465Z,4.54
2023-10-30T08:08:46.488Z,4.51
2023-10-30T08:11:15.828Z,4.46
2023-10-30T08:13:43.809Z,4.34
2023-10-30T08:16:12.297Z,4.99
2023-10-30T08:18:41.177Z,4.40
2023-10-30T08:21:09.172Z,4.50
2023-10-30T08:23:38.434Z,4.60
2023-10-30T08:26:07.444Z,4.51
2023-10-30T08:28:38.129Z,4.54
2023-10-30T08:31:06.554Z,4.74
2023-10-30T08:33:34.700Z,4.68
2023-10-30T08:36:02.701Z,4.53
2023-10-30T08:38:30.645Z,4.24
2023-10-30T08:40:58.623Z,4.29
2023-10-30T08:43:26.670Z,4.41
2023-10-30T08:45:56.272Z,4.43
2023-10-30T08:48:24.256Z,4.28
2023-10-30T08:50:52.394Z,4.46
2023-10-30T08:53:20.429Z,4.54
2023-10-30T08:55:48.414Z,4.38
2023-10-30T08:58:16.331Z,5.14
2023-10-30T09:00:44.560Z,5.49
2023-10-30T09:03:13.873Z,4.53
2023-10-30T09:05:42.675Z,4.43
2023-10-30T09:08:11.117Z,4.47
2023-10-30T09:10:39.106Z,3.97
2023-10-30T09:13:07.016Z,4.00
2023-10-30T09:15:35.056Z,4.17
2023-10-30T09:18:03.002Z,4.65
2023-10-30T09:20:32.344Z,4.34
2023-10-30T09:23:00.367Z,3.58
2023-10-30T09:25:28.460Z,3.66
2023-10-30T09:27:56.538Z,3.54
2023-10-30T09:30:30.755Z,3.47
2023-10-30T09:33:00.030Z,3.34
2023-10-30T09:35:30.438Z,3.43
2023-10-30T09:38:01.164Z,3.16
2023-10-30T09:40:29.420Z,3.40
2023-10-30T09:42:59.345Z,3.47
2023-10-30T09:45:29.591Z,3.54
2023-10-30T09:47:59.617Z,3.19
2023-10-30T09:50:27.987Z,3.12
2023-10-30T09:52:58.076Z,3.39
2023-10-30T09:55:28.967Z,3.32
2023-10-30T09:57:57.024Z,3.34
2023-10-30T10:00:25.501Z,3.23
2023-10-30T10:02:53.804Z,3.13
2023-10-30T10:05:21.869Z,3.07
2023-10-30T10:07:52.374Z,3.21
2023-10-30T10:10:20.826Z,2.83
2023-10-30T10:12:53.205Z,3.22
2023-10-30T10:15:21.934Z,2.94
2023-10-30T10:17:50.753Z,2.88
2023-10-30T10:20:23.036Z,2.85
2023-10-30T10:22:51.542Z,3.07
2023-10-30T10:25:20.275Z,2.74
2023-10-30T10:27:51.193Z,2.84
2023-10-30T10:30:26.324Z,2.65
2023-10-30T10:32:54.874Z,2.54
2023-10-30T10:35:24.682Z,2.64
2023-10-30T10:38:09.507Z,2.56
2023-10-30T10:40:37.724Z,2.61
2023-10-30T10:43:09.168Z,2.60
2023-10-30T10:45:40.764Z,2.64
2023-10-30T10:48:10.883Z,2.42
2023-10-30T10:50:38.895Z,7.34
2023-10-30T10:53:07.328Z,2.59
2023-10-30T10:55:43.889Z,2.60
2023-10-30T10:58:13.938Z,2.35
2023-10-30T11:00:48.986Z,2.28
2023-10-30T11:03:18.215Z,2.33
2023-10-30T11:05:50.732Z,2.32
2023-10-30T11:08:33.464Z,2.19
2023-10-30T11:11:09.994Z,2.47
2023-10-30T11:14:01.176Z,2.31
2023-10-30T11:16:38.080Z,2.32
2023-10-30T11:19:08.278Z,2.13
2023-10-30T11:21:36.874Z,2.35
2023-10-30T11:24:05.301Z,2.30
2023-10-30T11:26:40.858Z,2.24
2023-10-30T11:29:12.989Z,2.27
2023-10-30T11:32:05.182Z,2.23
2023-10-30T11:34:34.953Z,2.59
2023-10-30T11:37:11.648Z,2.51
2023-10-30T11:39:41.362Z,2.60
2023-10-30T11:42:41.056Z,2.46
2023-10-30T11:45:22.998Z,2.46
2023-10-30T11:47:59.917Z,2.38
2023-10-30T11:50:29.684Z,2.36
2023-10-30T11:53:01.057Z,2.33
2023-10-30T11:55:33.071Z,2.30
2023-10-30T11:58:01.696Z,2.25
2023-10-30T12:00:31.104Z,2.19
2023-10-30T12:03:02.064Z,2.18
2023-10-30T12:05:30.053Z,2.43
2023-10-30T12:07:58.011Z,2.25
2023-10-30T12:10:25.970Z,2.45
2023-10-30T12:12:56.118Z,2.00
2023-10-30T12:15:24.432Z,2.28
2023-10-30T12:17:52.540Z,2.41
2023-10-30T12:20:22.213Z,6.48
2023-10-30T12:22:50.237Z,2.56
2023-10-30T12:25:19.003Z,2.45
2023-10-30T12:27:47.283Z,2.51
2023-10-30T12:30:17.753Z,2.88
2023-10-30T12:32:54.445Z,3.20
2023-10-30T12:35:23.793Z,2.86
2023-10-30T12:37:51.774Z,4.47
2023-10-30T12:40:19.976Z,3.81
2023-10-30T12:42:50.221Z,3.48
2023-10-30T12:45:19.969Z,3.40
2023-10-30T12:47:51.072Z,3.24
2023-10-30T12:50:19.751Z,2.85
2023-10-30T12:52:49.133Z,2.69
2023-10-30T12:55:17.139Z,3.02
2023-10-30T12:57:45.238Z,2.65
2023-10-30T13:00:14.306Z,2.61
2023-10-30T13:02:42.469Z,3.17
2023-10-30T13:05:12.980Z,3.27
2023-10-30T13:07:42.194Z,2.84
2023-10-30T13:10:11.876Z,2.81
2023-10-30T13:12:39.866Z,2.85
2023-10-30T13:15:08.859Z,3.64
2023-10-30T13:17:37.046Z,3.60
2023-10-30T13:20:07.236Z,2.86
2023-10-30T13:22:35.779Z,2.89
2023-10-30T13:25:05.041Z,3.00
2023-10-30T13:27:34.721Z,3.31
2023-10-30T13:30:05.134Z,3.42
2023-10-30T13:32:33.698Z,3.30
2023-10-30T13:35:01.810Z,3.17
2023-10-30T13:37:29.925Z,2.65
2023-10-30T13:39:57.936Z,2.73
2023-10-30T13:42:25.945Z,2.72
2023-10-30T13:44:55.274Z,2.83
2023-10-30T13:47:23.249Z,2.86
2023-10-30T13:49:51.505Z,2.97
2023-10-30T13:52:19.703Z,3.26
2023-10-30T13:54:48.134Z,3.10
2023-10-30T13:57:16.282Z,3.57
2023-10-30T13:59:44.425Z,3.54
2023-10-30T14:02:14.752Z,3.56
2023-10-30T14:04:46.237Z,3.52
2023-10-30T14:07:14.646Z,3.27
2023-10-30T14:09:42.631Z,3.74
2023-10-30T14:12:10.726Z,3.55
2023-10-30T14:14:38.762Z,3.79
2023-10-30T14:17:06.765Z,3.61
2023-10-30T14:19:36.270Z,3.55
2023-10-30T14:22:04.338Z,3.08
2023-10-30T14:24:32.481Z,3.04
2023-10-30T14:27:00.518Z,3.37
2023-10-30T14:29:28.548Z,3.50
2023-10-30T14:31:56.562Z,3.02
2023-10-30T14:34:24.563Z,3.13
2023-10-30T14:36:53.913Z,3.32
2023-10-30T14:39:21.990Z,3.58
2023-10-30T14:41:49.974Z,3.22
2023-10-30T14:44:17.967Z,3.67
2023-10-30T14:46:45.973Z,3.48
2023-10-30T14:49:14.159Z,3.46
2023-10-30T14:51:42.149Z,3.56
2023-10-30T14:54:11.446Z,3.53
2023-10-30T14:56:39.611Z,3.74
2023-10-30T14:59:07.571Z,4.00
2023-10-30T15:01:35.591Z,4.53
2023-10-30T15:04:03.718Z,4.94
2023-10-30T15:06:32.501Z,5.15
2023-10-30T15:09:03.442Z,5.08
2023-10-30T15:11:33.106Z,5.71
2023-10-30T15:14:01.131Z,16.77
2023-10-30T15:16:29.336Z,12.98
2023-10-30T15:18:57.653Z,9.68
2023-10-30T15:21:25.726Z,7.24
2023-10-30T15:23:56.199Z,6.62
2023-10-30T15:26:24.184Z,7.15
2023-10-30T15:28:53.492Z,7.93
2023-10-30T15:31:25.047Z,9.96
2023-10-30T15:33:54.678Z,10.00
2023-10-30T15:36:23.454Z,11.02
2023-10-30T15:38:51.403Z,9.41
2023-10-30T15:41:19.697Z,9.10
2023-10-30T15:43:47.762Z,9.08
2023-10-30T15:46:17.122Z,10.74
2023-10-30T15:48:47.699Z,9.90
2023-10-30T15:51:15.952Z,9.58
2023-10-30T15:58:46.261Z,16.56
2023-10-30T16:01:15.660Z,17.30
2023-10-30T16:03:45.191Z,18.54
2023-10-30T16:06:14.337Z,15.24
2023-10-30T16:11:30.332Z,9.85
2023-10-30T16:13:58.993Z,22.25
2023-10-30T16:16:27.315Z,23.01
2023-10-30T16:19:15.584Z,20.38
2023-10-30T16:21:44.669Z,30.08
2023-10-30T16:24:12.713Z,33.41
2023-10-30T16:26:40.866Z,16.42
2023-10-30T16:29:10.671Z,12.37
2023-10-30T16:31:39.238Z,11.62
2023-10-30T16:34:08.603Z,20.89
2023-10-30T16:36:36.784Z,22.20
2023-10-30T16:39:05.039Z,20.81
2023-10-30T16:41:33.084Z,19.58
2023-10-30T16:44:01.073Z,14.94
2023-10-30T16:46:29.112Z,11.34
2023-10-30T16:48:57.136Z,10.51
2023-10-30T16:51:26.443Z,10.24
2023-10-30T16:53:54.457Z,9.81
2023-10-30T16:56:22.446Z,8.89
2023-10-30T16:58:50.452Z,8.83
2023-10-30T17:01:18.468Z,8.64
2023-10-30T17:03:46.469Z,7.81
2023-10-30T17:06:14.488Z,8.08
2023-10-30T17:08:43.824Z,7.95
2023-10-30T17:11:12.838Z,7.99
2023-10-30T17:13:41.041Z,8.77
2023-10-30T17:16:09.730Z,8.80
2023-10-30T17:18:37.827Z,8.42
2023-10-30T17:21:07.171Z,8.20
2023-10-30T17:23:35.892Z,7.24
2023-10-30T17:26:06.245Z,6.40
2023-10-30T17:28:34.696Z,6.79
2023-10-30T17:31:02.758Z,6.12
2023-10-30T17:33:31.733Z,6.09
2023-10-30T17:35:59.824Z,6.04
2023-10-30T17:38:27.838Z,5.69
2023-10-30T17:40:55.877Z,5.61
2023-10-30T17:43:25.517Z,5.62
2023-10-30T17:45:55.959Z,4.68
2023-10-30T17:48:24.326Z,4.62
2023-10-30T17:50:52.746Z,4.41
2023-10-30T17:53:20.835Z,4.22
2023-10-30T17:55:50.692Z,4.52
2023-10-30T17:58:18.999Z,4.59
2023-10-30T18:00:48.418Z,4.63
2023-10-30T18:03:16.543Z,5.07
2023-10-30T18:05:44.776Z,4.44
2023-10-30T18:08:12.797Z,4.40
2023-10-30T18:10:40.823Z,4.26
2023-10-30T18:13:09.290Z,4.15
2023-10-30T18:15:37.697Z,4.09
2023-10-30T18:18:07.286Z,4.26
2023-10-30T18:20:36.436Z,4.67
2023-10-30T18:23:05.049Z,5.27
2023-10-30T18:25:33.370Z,4.84
2023-10-30T18:28:02.894Z,4.68
2023-10-30T18:30:30.874Z,4.65
2023-10-30T18:33:00.403Z,4.44
2023-10-30T18:35:29.882Z,4.19
2023-10-30T18:37:58.905Z,4.62
2023-10-30T18:40:28.696Z,4.67
2023-10-30T18:42:56.833Z,5.13
2023-10-30T18:45:24.790Z,5.35
2023-10-30T18:47:53.444Z,4.96
2023-10-30T18:50:21.734Z,4.51
2023-10-30T18:52:51.024Z,4.38
2023-10-30T18:55:19.139Z,4.01
2023-10-30T18:57:47.086Z,3.71
2023-10-30T19:00:16.376Z,3.42
2023-10-30T19:02:47.224Z,3.30
2023-10-30T19:05:15.343Z,3.45
2023-10-30T19:07:43.431Z,3.08
2023-10-30T19:10:12.963Z,2.86
2023-10-30T19:12:41.124Z,2.43
2023-10-30T19:15:09.494Z,2.38
2023-10-30T19:17:37.514Z,2.12
2023-10-30T19:20:06.491Z,2.00
2023-10-30T19:22:34.754Z,2.34
2023-10-30T19:25:02.743Z,2.13
2023-10-30T19:27:32.085Z,2.15
2023-10-30T19:30:00.152Z,2.02
2023-10-30T19:32:28.177Z,2.23
2023-10-30T19:34:56.264Z,2.45
2023-10-30T19:37:24.849Z,2.82
2023-10-30T19:39:54.682Z,3.48
2023-10-30T19:42:22.812Z,4.01
2023-10-30T19:44:52.207Z,4.23
2023-10-30T19:47:20.414Z,4.27
2023-10-30T19:49:49.584Z,4.67
2023-10-30T19:52:17.730Z,5.86
2023-10-30T19:54:45.656Z,6.20
2023-10-30T19:57:13.766Z,6.27
2023-10-30T19:59:41.767Z,7.04
2023-10-30T20:02:10.186Z,11.28
2023-10-30T20:04:38.210Z,7.77
2023-10-30T20:07:06.373Z,7.29
2023-10-30T20:09:42.080Z,8.37
2023-10-30T20:12:17.362Z,8.13
2023-10-30T20:14:45.368Z,8.34
2023-10-30T20:17:14.825Z,8.42
2023-10-30T20:19:42.896Z,8.70
2023-10-30T20:22:10.869Z,8.32
2023-10-30T20:24:40.607Z,8.01
2023-10-30T20:27:08.609Z,8.63
2023-10-30T20:29:36.576Z,8.70
2023-10-30T20:32:06.233Z,8.25
2023-10-30T20:34:35.673Z,7.89
2023-10-30T20:37:04.069Z,7.59
2023-10-30T20:39:32.038Z,7.50
2023-10-30T20:42:00.085Z,8.92
2023-10-30T20:44:28.151Z,11.10
2023-10-30T20:46:56.177Z,7.89
2023-10-30T20:49:24.305Z,7.37
2023-10-30T20:51:54.028Z,7.75
2023-10-30T20:54:21.984Z,7.82
2023-10-30T20:56:49.978Z,7.94
2023-10-30T20:59:18.007Z,8.17
2023-10-30T21:01:46.047Z,7.66
2023-10-30T21:04:32.610Z,7.85
2023-10-30T21:07:20.970Z,8.09
2023-10-30T21:10:08.740Z,7.84
2023-10-30T21:12:36.816Z,8.08
2023-10-30T21:15:08.697Z,8.07
2023-10-30T21:17:36.760Z,8.36
2023-10-30T21:20:05.875Z,8.06
2023-10-30T21:22:35.485Z,8.11
2023-10-30T21:25:03.502Z,8.85
2023-10-30T21:27:31.944Z,12.45
2023-10-30T21:29:59.925Z,12.69
2023-10-30T21:32:27.890Z,9.61
2023-10-30T21:34:56.068Z,8.17
2023-10-30T21:37:24.498Z,7.40
2023-10-30T21:39:53.922Z,6.96
2023-10-30T21:42:23.182Z,7.09
2023-10-30T21:44:52.329Z,6.07
2023-10-30T21:47:20.360Z,5.74
2023-10-30T21:49:48.757Z,5.55
2023-10-30T21:52:16.854Z,4.94
2023-10-30T21:54:45.222Z,4.53
2023-10-30T21:57:14.543Z,4.12
2023-10-30T21:59:42.574Z,4.02
2023-10-30T22:02:10.628Z,3.69
2023-10-30T22:04:38.641Z,3.30
2023-10-30T22:07:06.830Z,3.40
2023-10-30T22:09:34.851Z,3.46
2023-10-30T22:12:02.854Z,7.62
2023-10-30T22:14:32.625Z,10.84
2023-10-30T22:17:02.541Z,5.16
2023-10-30T22:19:30.596Z,3.78
2023-10-30T22:21:58.600Z,4.03
2023-10-30T22:24:26.575Z,4.49
2023-10-30T22:26:55.035Z,4.20
2023-10-30T22:29:23.176Z,4.63
2023-10-30T22:31:52.527Z,4.52
2023-10-30T22:34:20.557Z,4.50
2023-10-30T22:36:48.541Z,5.06
2023-10-30T22:39:16.586Z,4.40
2023-10-30T22:41:44.517Z,3.92
2023-10-30T22:44:12.468Z,3.49
2023-10-30T22:46:42.088Z,6.15
2023-10-30T22:49:11.722Z,6.18
2023-10-30T22:51:39.811Z,3.14
2023-10-30T22:54:07.820Z,2.88
2023-10-30T22:56:35.825Z,3.04
2023-10-30T22:59:04.597Z,2.85
2023-10-30T23:01:32.562Z,2.51
2023-10-30T23:06:30.023Z,2.60
2023-10-30T23:08:57.988Z,2.45
2023-10-30T23:11:26.002Z,2.50
2023-10-30T23:13:54.057Z,2.51
2023-10-30T23:16:22.092Z,2.56
2023-10-30T23:18:50.068Z,2.34
2023-10-30T23:21:18.079Z,1.99
2023-10-30T23:23:47.413Z,2.01
2023-10-30T23:26:15.584Z,1.93
2023-10-30T23:28:43.605Z,1.77
2023-10-30T23:31:11.885Z,1.88
2023-10-30T23:33:40.001Z,1.65
2023-10-30T23:36:10.339Z,1.65
2023-10-30T23:38:38.587Z,1.48
2023-10-30T23:41:09.081Z,2.51
2023-10-30T23:43:37.289Z,4.03
2023-10-30T23:46:05.560Z,1.46
2023-10-30T23:48:33.615Z,1.25
2023-10-30T23:51:01.678Z,1.04
2023-10-30T23:53:29.742Z,0.90
2023-10-30T23:55:57.763Z,0.78
2023-10-30T23:58:27.135Z,0.85
